ZPPP

Kunming Wujiaba International Airport

Kunming, China
TAF ZPPP 180706Z 1812/1912 22006MPS 9999 SCT026 TX26/1908Z TN15/1823Z
Issued Valid From Valid To
Jun-18 @ 07:06 UTC
(6 hours ago)
Jun-18 @ 12:00 UTC
(an hour ago)
Jun-19 @ 12:00 UTC
(in 23 hours)
Jun-18 @ 12:00 to Jun-19 @ 12:00
TAF ZPPP 180706Z 1812/1912 22006MPS 9999 SCT026 TX26/1908Z TN15/1823Z
Wind Visibility Clouds
220° at 12 knots 10,000+ meters
  • Scattered at 2,600' AGL
TAF ZPPP 180706Z 1812/1912 22006MPS 9999 SCT026 TX26/1908Z TN15/1823Z
Issued Jun-18 @ 07:06 UTC
(6 hours ago)
Valid From Jun-18 @ 12:00 UTC
(an hour ago)
Valid To Jun-19 @ 12:00 UTC
(in 23 hours)
Jun-18 @ 12:00 - Jun-19 @ 12:00
Wind Visibility
220° at 12 knots 10,000+ meters
Clouds
  • Scattered at 2,600' AGL